createdAt,value
2018-05-26T00:00:09.203Z,8.02
2018-05-26T00:01:14.695Z,8.20
2018-05-26T00:02:20.368Z,7.80
2018-05-26T00:03:25.003Z,7.12
2018-05-26T00:04:29.688Z,9.02
2018-05-26T00:05:34.530Z,7.45
2018-05-26T00:06:39.183Z,7.87
2018-05-26T00:07:43.794Z,7.80
2018-05-26T00:08:48.588Z,8.20
2018-05-26T00:09:53.245Z,7.87
2018-05-26T00:10:58.161Z,7.97
2018-05-26T00:12:02.923Z,7.65
2018-05-26T00:13:07.538Z,7.20
2018-05-26T00:14:12.172Z,7.50
2018-05-26T00:15:16.835Z,8.50
2018-05-26T00:16:22.469Z,7.97
2018-05-26T00:17:27.832Z,7.80
2018-05-26T00:18:32.484Z,8.30
2018-05-26T00:19:37.114Z,8.10
2018-05-26T00:20:41.754Z,7.72
2018-05-26T00:21:47.162Z,7.80
2018-05-26T00:22:55.877Z,7.97
2018-05-26T00:24:00.549Z,7.97
2018-05-26T00:25:05.488Z,7.55
2018-05-26T00:26:10.148Z,8.02
2018-05-26T00:27:15.126Z,7.75
2018-05-26T00:28:19.752Z,8.13
2018-05-26T00:29:25.158Z,7.35
2018-05-26T00:30:29.829Z,7.93
2018-05-26T00:31:35.270Z,8.05
2018-05-26T00:32:40.666Z,7.65
2018-05-26T00:33:45.284Z,7.80
2018-05-26T00:34:49.887Z,7.12
2018-05-26T00:35:54.506Z,7.40
2018-05-26T00:36:59.192Z,7.85
2018-05-26T00:38:03.857Z,8.15
2018-05-26T00:39:08.921Z,7.72
2018-05-26T00:40:13.724Z,7.30
2018-05-26T00:41:19.094Z,8.25
2018-05-26T00:42:24.276Z,8.00
2018-05-26T00:43:29.920Z,8.00
2018-05-26T00:44:35.263Z,8.65
2018-05-26T00:45:39.860Z,7.15
2018-05-26T00:46:45.230Z,7.57
2018-05-26T00:47:49.902Z,8.40
2018-05-26T00:48:55.393Z,8.18
2018-05-26T00:50:00.000Z,7.75
2018-05-26T00:51:04.745Z,9.10
2018-05-26T00:52:11.254Z,8.40
2018-05-26T00:53:15.858Z,7.57
2018-05-26T00:54:21.620Z,8.38
2018-05-26T00:55:26.289Z,8.07
2018-05-26T00:56:30.949Z,7.60
2018-05-26T00:57:35.619Z,8.02
2018-05-26T00:58:40.478Z,7.60
2018-05-26T00:59:45.482Z,7.90
2018-05-26T01:00:51.173Z,8.20
2018-05-26T01:01:55.841Z,7.62
2018-05-26T01:03:00.524Z,8.10
2018-05-26T01:04:05.265Z,8.15
2018-05-26T01:05:10.902Z,7.18
2018-05-26T01:06:16.337Z,7.20
2018-05-26T01:07:21.742Z,8.57
2018-05-26T01:08:26.358Z,9.75
2018-05-26T01:09:31.007Z,7.50
2018-05-26T01:10:36.739Z,7.80
2018-05-26T01:11:41.338Z,7.25
2018-05-26T01:12:45.973Z,7.50
2018-05-26T01:13:51.965Z,7.50
2018-05-26T01:14:56.634Z,8.23
2018-05-26T01:16:02.068Z,7.70
2018-05-26T01:17:07.465Z,7.62
2018-05-26T01:18:12.163Z,7.87
2018-05-26T01:19:17.064Z,7.05
2018-05-26T01:20:23.520Z,7.82
2018-05-26T01:21:28.143Z,7.80
2018-05-26T01:22:32.807Z,7.40
2018-05-26T01:23:37.437Z,8.95
2018-05-26T01:24:43.088Z,6.90
2018-05-26T01:25:47.717Z,8.25
2018-05-26T01:26:52.621Z,7.95
2018-05-26T01:27:58.062Z,7.20
2018-05-26T01:29:02.797Z,7.85
2018-05-26T01:30:07.464Z,7.90
2018-05-26T01:31:12.262Z,8.02
2018-05-26T01:32:16.906Z,8.25
2018-05-26T01:33:21.772Z,7.60
2018-05-26T01:34:26.534Z,9.07
2018-05-26T01:36:33.871Z,7.68
2018-05-26T01:37:38.593Z,7.80
2018-05-26T01:38:43.226Z,8.13
2018-05-26T01:39:48.152Z,7.68
2018-05-26T01:40:52.793Z,8.55
2018-05-26T01:41:58.457Z,8.10
2018-05-26T01:43:03.141Z,8.18
2018-05-26T01:44:08.119Z,8.50
2018-05-26T01:45:12.848Z,8.32
2018-05-26T01:46:18.226Z,8.10
2018-05-26T01:47:23.637Z,8.23
2018-05-26T01:48:29.142Z,7.45
2018-05-26T01:49:33.923Z,7.95
2018-05-26T01:50:39.461Z,8.52
2018-05-26T01:51:45.141Z,8.43
2018-05-26T01:52:49.985Z,7.68
2018-05-26T01:53:55.506Z,8.00
2018-05-26T01:55:00.492Z,7.53
2018-05-26T01:56:05.106Z,7.45
2018-05-26T01:57:09.749Z,8.48
2018-05-26T01:58:14.519Z,7.57
2018-05-26T01:59:19.915Z,8.63
2018-05-26T02:00:24.550Z,7.62
2018-05-26T02:01:29.171Z,9.18
2018-05-26T02:02:33.823Z,7.78
2018-05-26T02:03:38.433Z,8.30
2018-05-26T02:04:43.077Z,8.18
2018-05-26T02:05:47.681Z,8.15
2018-05-26T02:06:53.559Z,8.25
2018-05-26T02:07:58.399Z,8.20
2018-05-26T02:09:03.943Z,8.20
2018-05-26T02:10:09.441Z,8.65
2018-05-26T02:11:14.818Z,7.90
2018-05-26T02:12:19.437Z,7.93
2018-05-26T02:13:24.061Z,8.00
2018-05-26T02:14:28.693Z,8.50
2018-05-26T02:15:33.312Z,8.57
2018-05-26T02:16:37.913Z,7.95
2018-05-26T02:17:42.577Z,7.70
2018-05-26T02:18:47.243Z,7.57
2018-05-26T02:19:52.681Z,7.60
2018-05-26T02:20:57.294Z,8.52
2018-05-26T02:22:02.221Z,8.75
2018-05-26T02:23:07.228Z,7.80
2018-05-26T02:24:12.625Z,8.27
2018-05-26T02:25:17.223Z,8.55
2018-05-26T02:26:21.852Z,7.40
2018-05-26T02:27:26.449Z,8.68
2018-05-26T02:28:31.570Z,7.85
2018-05-26T02:29:36.230Z,8.35
2018-05-26T02:30:41.573Z,7.75
2018-05-26T02:31:46.748Z,8.57
2018-05-26T02:32:51.403Z,8.02
2018-05-26T02:33:56.787Z,8.38
2018-05-26T02:35:01.429Z,8.98
2018-05-26T02:36:06.122Z,7.93
2018-05-26T02:37:10.835Z,7.60
2018-05-26T02:38:15.459Z,8.85
2018-05-26T02:39:20.386Z,8.65
2018-05-26T02:40:25.051Z,8.27
2018-05-26T02:41:29.674Z,8.73
2018-05-26T02:42:34.681Z,8.35
2018-05-26T02:43:40.077Z,8.10
2018-05-26T02:44:45.050Z,8.15
2018-05-26T02:45:49.669Z,7.93
2018-05-26T02:48:51.351Z,7.68
2018-05-26T02:49:55.698Z,7.80
2018-05-26T02:51:00.009Z,8.20
2018-05-26T02:52:04.317Z,8.95
2018-05-26T02:53:08.611Z,8.85
2018-05-26T02:54:12.957Z,8.30
2018-05-26T02:55:18.014Z,8.57
2018-05-26T02:56:22.343Z,9.63
2018-05-26T02:57:26.645Z,8.35
2018-05-26T02:58:31.045Z,7.93
2018-05-26T02:59:35.351Z,8.77
2018-05-26T03:00:39.657Z,8.85
2018-05-26T03:01:44.318Z,7.85
2018-05-26T03:02:48.657Z,8.52
2018-05-26T03:03:52.003Z,8.27
2018-05-26T03:05:01.277Z,8.20
2018-05-26T03:06:10.630Z,7.75
2018-05-26T03:07:20.776Z,7.97
2018-05-26T03:08:30.334Z,9.50
2018-05-26T03:09:40.473Z,8.13
2018-05-26T03:10:49.858Z,8.38
2018-05-26T03:11:59.393Z,8.40
2018-05-26T03:13:08.840Z,7.90
2018-05-26T03:14:19.069Z,8.63
2018-05-26T03:15:22.358Z,8.23
2018-05-26T03:16:27.441Z,8.38
2018-05-26T03:17:32.503Z,8.63
2018-05-26T03:18:36.803Z,9.10
2018-05-26T03:19:41.088Z,8.70
2018-05-26T03:20:45.410Z,9.00
2018-05-26T03:21:49.717Z,8.10
2018-05-26T03:22:54.054Z,8.32
2018-05-26T03:23:58.357Z,8.13
2018-05-26T03:25:02.952Z,8.45
2018-05-26T03:26:07.334Z,9.73
2018-05-26T03:27:11.857Z,8.27
2018-05-26T03:28:16.172Z,7.40
2018-05-26T03:29:20.489Z,7.65
2018-05-26T03:30:25.091Z,8.60
2018-05-26T03:31:29.416Z,7.78
2018-05-26T03:32:33.973Z,8.90
2018-05-26T03:33:39.540Z,7.82
2018-05-26T03:34:43.823Z,9.63
2018-05-26T03:35:48.824Z,8.23
2018-05-26T03:36:53.303Z,8.50
2018-05-26T03:37:57.664Z,8.27
2018-05-26T03:39:02.028Z,8.00
2018-05-26T03:40:06.654Z,7.62
2018-05-26T03:41:11.086Z,7.30
2018-05-26T03:42:15.496Z,8.05
2018-05-26T03:43:19.800Z,7.47
2018-05-26T03:44:24.081Z,8.25
2018-05-26T03:45:29.430Z,7.50
2018-05-26T03:46:33.711Z,8.52
2018-05-26T03:47:38.025Z,9.02
2018-05-26T03:48:42.470Z,8.80
2018-05-26T03:49:47.539Z,8.82
2018-05-26T03:50:51.893Z,9.23
2018-05-26T03:51:56.700Z,8.27
2018-05-26T03:53:01.010Z,8.32
2018-05-26T03:54:05.308Z,9.00
2018-05-26T03:59:25.163Z,8.30
2018-05-26T04:00:29.430Z,8.48
2018-05-26T04:01:33.722Z,9.00
2018-05-26T04:02:38.314Z,8.10
2018-05-26T04:03:42.609Z,8.20
2018-05-26T04:04:47.064Z,8.77
2018-05-26T04:05:51.424Z,8.93
2018-05-26T04:06:55.704Z,8.80
2018-05-26T04:08:00.859Z,8.63
2018-05-26T04:09:05.663Z,8.75
2018-05-26T04:10:10.165Z,7.55
2018-05-26T04:11:14.460Z,8.48
2018-05-26T04:12:19.817Z,8.15
2018-05-26T04:13:24.355Z,7.90
2018-05-26T04:14:28.658Z,8.48
2018-05-26T04:15:32.951Z,8.15
2018-05-26T04:16:37.250Z,8.50
2018-05-26T04:17:41.524Z,8.20
2018-05-26T04:18:45.819Z,8.48
2018-05-26T04:19:50.147Z,9.07
2018-05-26T04:20:55.236Z,8.82
2018-05-26T04:21:59.572Z,9.10
2018-05-26T04:23:04.178Z,9.15
2018-05-26T04:24:08.536Z,9.35
2018-05-26T04:25:13.079Z,8.20
2018-05-26T04:26:17.386Z,8.75
2018-05-26T04:27:21.724Z,8.48
2018-05-26T04:28:26.341Z,8.65
2018-05-26T04:29:31.414Z,8.30
2018-05-26T04:30:35.694Z,9.15
2018-05-26T04:31:40.239Z,8.98
2018-05-26T04:32:44.554Z,7.68
2018-05-26T04:33:48.887Z,8.80
2018-05-26T04:34:53.291Z,7.70
2018-05-26T04:35:57.603Z,8.43
2018-05-26T04:37:01.916Z,8.23
2018-05-26T04:38:06.194Z,8.98
2018-05-26T04:39:10.525Z,8.82
2018-05-26T04:40:14.820Z,8.93
2018-05-26T04:41:19.341Z,8.27
2018-05-26T04:42:23.648Z,9.68
2018-05-26T04:43:27.927Z,8.02
2018-05-26T04:44:32.588Z,8.73
2018-05-26T04:45:37.703Z,8.73
2018-05-26T04:46:42.301Z,9.07
2018-05-26T04:47:46.577Z,8.70
2018-05-26T04:48:51.101Z,8.88
2018-05-26T04:49:55.441Z,8.30
2018-05-26T04:50:59.745Z,8.68
2018-05-26T04:52:04.051Z,7.50
2018-05-26T04:53:08.359Z,8.80
2018-05-26T04:54:12.685Z,8.23
2018-05-26T04:55:18.053Z,9.43
2018-05-26T04:56:22.371Z,8.82
2018-05-26T04:57:26.685Z,9.20
2018-05-26T04:58:32.112Z,9.55
2018-05-26T04:59:36.447Z,7.97
2018-05-26T05:00:45.202Z,9.05
2018-05-26T05:01:50.244Z,7.15
2018-05-26T05:02:54.546Z,7.97
2018-05-26T05:03:58.859Z,8.30
2018-05-26T05:05:03.203Z,7.90
2018-05-26T05:06:07.491Z,9.23
2018-05-26T05:07:11.799Z,8.05
2018-05-26T05:08:16.276Z,9.32
2018-05-26T05:09:20.599Z,8.93
2018-05-26T05:10:24.926Z,8.02
2018-05-26T05:11:29.438Z,9.52
2018-05-26T05:12:34.092Z,9.00
2018-05-26T05:13:39.185Z,8.18
2018-05-26T05:14:43.483Z,8.25
2018-05-26T05:15:47.867Z,7.78
2018-05-26T05:16:52.182Z,8.05
2018-05-26T05:17:56.829Z,9.50
2018-05-26T05:19:01.226Z,8.65
2018-05-26T05:20:06.164Z,8.93
2018-05-26T05:21:10.524Z,8.15
2018-05-26T05:22:14.869Z,8.10
2018-05-26T05:23:19.173Z,8.05
2018-05-26T05:24:23.477Z,8.50
2018-05-26T05:25:28.204Z,8.38
2018-05-26T05:26:32.484Z,8.48
2018-05-26T05:27:36.770Z,8.60
2018-05-26T05:28:41.860Z,8.93
2018-05-26T05:29:46.165Z,7.57
2018-05-26T05:30:50.523Z,8.38
2018-05-26T05:31:54.849Z,8.93
2018-05-26T05:32:59.219Z,9.25
2018-05-26T05:34:04.279Z,8.63
2018-05-26T05:35:08.864Z,8.57
2018-05-26T05:36:13.934Z,7.70
2018-05-26T05:37:18.294Z,8.88
2018-05-26T05:38:23.355Z,8.00
2018-05-26T05:39:27.684Z,9.07
2018-05-26T05:40:32.032Z,9.10
2018-05-26T05:41:37.093Z,8.07
2018-05-26T05:42:41.800Z,8.02
2018-05-26T05:43:46.147Z,8.57
2018-05-26T05:44:50.516Z,8.43
2018-05-26T05:45:54.832Z,7.78
2018-05-26T05:46:59.175Z,9.20
2018-05-26T05:48:03.515Z,7.85
2018-05-26T05:49:08.684Z,7.82
2018-05-26T05:50:13.061Z,8.15
2018-05-26T05:51:17.642Z,8.55
2018-05-26T05:52:22.257Z,8.57
2018-05-26T05:53:30.667Z,7.90
2018-05-26T05:54:34.957Z,7.47
2018-05-26T05:55:39.296Z,7.87
2018-05-26T05:56:43.619Z,7.93
2018-05-26T05:57:47.961Z,7.93
2018-05-26T05:58:52.283Z,7.40
2018-05-26T05:59:56.591Z,8.32
2018-05-26T06:01:00.899Z,7.90
2018-05-26T06:02:05.253Z,7.20
2018-05-26T06:03:10.341Z,7.68
2018-05-26T06:04:14.645Z,7.78
2018-05-26T06:05:19.016Z,8.13
2018-05-26T06:06:23.397Z,8.10
2018-05-26T06:07:28.554Z,7.68
2018-05-26T06:08:33.152Z,7.47
2018-05-26T06:09:37.500Z,8.30
2018-05-26T06:10:41.918Z,7.80
2018-05-26T06:11:46.269Z,7.55
2018-05-26T06:12:50.640Z,8.52
2018-05-26T06:13:54.968Z,8.50
2018-05-26T06:15:00.081Z,7.62
2018-05-26T06:16:04.613Z,7.43
2018-05-26T06:17:09.721Z,8.57
2018-05-26T06:18:14.032Z,8.02
2018-05-26T06:19:18.700Z,8.63
2018-05-26T06:20:23.029Z,7.80
2018-05-26T06:21:27.441Z,8.68
2018-05-26T06:22:31.957Z,7.80
2018-05-26T06:23:36.262Z,8.15
2018-05-26T06:24:40.831Z,7.45
2018-05-26T06:25:45.152Z,7.32
2018-05-26T06:26:50.446Z,8.45
2018-05-26T06:27:55.555Z,8.45
2018-05-26T06:29:00.140Z,7.97
2018-05-26T06:30:04.510Z,8.10
2018-05-26T06:31:10.131Z,8.30
2018-05-26T06:32:15.232Z,6.97
2018-05-26T06:33:19.601Z,7.40
2018-05-26T06:34:23.949Z,8.35
2018-05-26T06:35:28.599Z,7.85
2018-05-26T06:36:33.804Z,8.10
2018-05-26T06:37:38.166Z,7.93
2018-05-26T06:38:42.533Z,8.13
2018-05-26T06:39:47.640Z,7.43
2018-05-26T06:40:52.452Z,7.68
2018-05-26T06:41:57.156Z,7.65
2018-05-26T06:43:01.541Z,7.57
2018-05-26T06:44:05.971Z,8.57
2018-05-26T06:45:10.267Z,7.80
2018-05-26T06:46:14.951Z,7.57
2018-05-26T06:47:20.273Z,7.30
2018-05-26T06:48:25.365Z,7.37
2018-05-26T06:49:29.767Z,7.97
2018-05-26T06:50:34.112Z,8.20
2018-05-26T06:51:39.484Z,7.53
2018-05-26T06:52:43.917Z,7.80
2018-05-26T06:53:48.221Z,7.10
2018-05-26T06:54:52.520Z,7.90
2018-05-26T06:55:56.903Z,7.28
2018-05-26T06:57:01.529Z,7.35
2018-05-26T06:58:06.221Z,7.85
2018-05-26T06:59:11.290Z,7.60
2018-05-26T07:00:15.642Z,6.87
2018-05-26T07:01:20.051Z,7.30
2018-05-26T07:02:25.322Z,7.75
2018-05-26T07:03:29.650Z,7.47
2018-05-26T07:04:34.612Z,7.60
2018-05-26T07:05:39.829Z,8.10
2018-05-26T07:06:44.177Z,7.93
2018-05-26T07:07:48.568Z,7.40
2018-05-26T07:08:54.624Z,7.00
2018-05-26T07:09:58.916Z,7.03
2018-05-26T07:11:04.017Z,6.70
2018-05-26T07:12:08.418Z,7.47
2018-05-26T07:13:13.287Z,7.00
2018-05-26T07:14:17.592Z,7.82
2018-05-26T07:15:21.895Z,8.10
2018-05-26T07:16:26.987Z,7.20
2018-05-26T07:17:31.325Z,7.70
2018-05-26T07:18:36.459Z,7.50
2018-05-26T07:19:40.810Z,7.35
2018-05-26T07:20:45.139Z,7.00
2018-05-26T07:21:49.483Z,7.35
2018-05-26T07:22:54.568Z,8.00
2018-05-26T07:23:58.876Z,7.87
2018-05-26T07:25:03.227Z,7.32
2018-05-26T07:26:07.884Z,7.68
2018-05-26T07:27:12.245Z,6.97
2018-05-26T07:28:16.583Z,7.32
2018-05-26T07:29:21.033Z,7.80
2018-05-26T07:30:25.387Z,7.80
2018-05-26T07:31:29.684Z,7.50
2018-05-26T07:32:34.255Z,7.68
2018-05-26T07:33:38.612Z,7.62
2018-05-26T07:34:42.938Z,7.50
2018-05-26T07:35:47.280Z,7.45
2018-05-26T07:36:51.938Z,6.75
2018-05-26T07:37:56.382Z,7.65
2018-05-26T07:39:00.696Z,6.93
2018-05-26T07:40:05.882Z,7.40
2018-05-26T07:41:10.237Z,7.40
2018-05-26T07:42:14.832Z,6.18
2018-05-26T07:43:19.203Z,7.43
2018-05-26T07:44:24.276Z,7.62
2018-05-26T07:45:28.636Z,6.70
2018-05-26T07:46:33.768Z,7.53
2018-05-26T07:47:38.842Z,7.50
2018-05-26T07:48:43.183Z,6.80
2018-05-26T07:49:47.480Z,7.12
2018-05-26T07:50:51.769Z,7.62
2018-05-26T07:51:56.276Z,7.28
2018-05-26T07:53:00.610Z,7.80
2018-05-26T07:54:04.916Z,7.00
2018-05-26T07:55:10.066Z,7.90
2018-05-26T07:56:15.168Z,6.87
2018-05-26T07:57:19.541Z,7.20
2018-05-26T07:58:23.904Z,7.22
2018-05-26T07:59:29.326Z,7.50
2018-05-26T08:00:33.664Z,7.65
2018-05-26T08:01:38.212Z,7.15
2018-05-26T08:02:42.790Z,7.43
2018-05-26T08:03:47.188Z,6.25
2018-05-26T08:04:52.321Z,6.75
2018-05-26T08:05:56.673Z,7.50
2018-05-26T08:07:01.063Z,6.85
2018-05-26T08:08:05.380Z,7.37
2018-05-26T08:09:09.677Z,7.20
2018-05-26T08:10:14.007Z,8.00
2018-05-26T08:11:18.383Z,7.25
2018-05-26T08:12:22.961Z,7.10
2018-05-26T08:13:28.064Z,7.90
2018-05-26T08:14:32.483Z,7.25
2018-05-26T08:15:37.089Z,7.47
2018-05-26T08:16:41.395Z,7.82
2018-05-26T08:17:45.779Z,6.80
2018-05-26T08:18:50.255Z,6.75
2018-05-26T08:19:55.355Z,6.87
2018-05-26T08:20:59.758Z,7.20
2018-05-26T08:22:04.059Z,8.45
2018-05-26T08:23:08.409Z,6.87
2018-05-26T08:24:13.497Z,7.07
2018-05-26T08:25:17.819Z,6.97
2018-05-26T08:26:22.145Z,6.97
2018-05-26T08:27:27.250Z,7.78
2018-05-26T08:28:31.675Z,6.37
2018-05-26T08:29:36.793Z,7.15
2018-05-26T08:30:41.877Z,7.87
2018-05-26T08:31:46.206Z,7.43
2018-05-26T08:32:50.794Z,7.05
2018-05-26T08:33:55.108Z,6.85
2018-05-26T08:34:59.418Z,7.20
2018-05-26T08:36:03.752Z,7.10
2018-05-26T08:37:08.070Z,6.55
2018-05-26T08:38:13.229Z,6.95
2018-05-26T08:39:17.565Z,7.30
2018-05-26T08:40:21.913Z,7.62
2018-05-26T08:41:27.160Z,7.70
2018-05-26T08:42:31.799Z,7.37
2018-05-26T08:43:36.294Z,7.47
2018-05-26T08:44:40.768Z,7.82
2018-05-26T08:45:45.099Z,7.50
2018-05-26T08:46:50.172Z,7.28
2018-05-26T08:47:54.611Z,7.22
2018-05-26T08:48:58.984Z,7.60
2018-05-26T08:50:03.614Z,7.43
2018-05-26T08:51:07.996Z,7.25
2018-05-26T08:52:12.370Z,6.95
2018-05-26T08:53:17.530Z,7.72
2018-05-26T08:54:21.886Z,7.80
2018-05-26T08:55:26.290Z,7.93
2018-05-26T08:56:30.984Z,7.37
2018-05-26T08:57:35.400Z,8.57
2018-05-26T08:58:39.801Z,7.28
2018-05-26T08:59:44.110Z,6.80
2018-05-26T09:00:48.457Z,6.75
2018-05-26T09:01:53.806Z,7.40
2018-05-26T09:02:58.923Z,7.70
2018-05-26T09:04:04.162Z,7.60
2018-05-26T09:05:09.594Z,7.60
2018-05-26T09:06:14.229Z,7.95
2018-05-26T09:07:18.585Z,7.05
2018-05-26T09:08:22.972Z,7.75
2018-05-26T09:09:27.334Z,7.90
2018-05-26T09:10:32.673Z,7.68
2018-05-26T09:11:37.045Z,7.25
2018-05-26T09:12:41.379Z,7.30
2018-05-26T09:13:46.626Z,7.60
2018-05-26T09:14:50.947Z,7.72
2018-05-26T09:15:55.384Z,7.35
2018-05-26T09:17:00.257Z,6.43
2018-05-26T09:18:05.402Z,7.70
2018-05-26T09:19:09.967Z,6.87
2018-05-26T09:20:14.736Z,6.78
2018-05-26T09:21:19.111Z,7.65
2018-05-26T09:22:23.759Z,7.03
2018-05-26T09:23:28.156Z,7.32
2018-05-26T09:24:32.505Z,7.75
2018-05-26T09:25:36.912Z,7.70
2018-05-26T09:26:41.281Z,7.32
2018-05-26T09:27:45.726Z,7.50
2018-05-26T09:28:50.872Z,6.70
2018-05-26T09:29:55.247Z,7.75
2018-05-26T09:30:59.582Z,7.30
2018-05-26T09:32:03.924Z,6.75
2018-05-26T09:33:09.089Z,7.68
2018-05-26T09:34:13.433Z,6.78
2018-05-26T09:35:17.785Z,7.55
2018-05-26T09:36:22.130Z,7.30
2018-05-26T09:37:26.492Z,7.05
2018-05-26T09:38:32.100Z,6.65
2018-05-26T09:39:36.584Z,6.45
2018-05-26T09:40:40.979Z,7.97
2018-05-26T09:41:45.287Z,6.55
2018-05-26T09:42:50.619Z,7.30
2018-05-26T09:43:54.942Z,7.15
2018-05-26T09:44:59.280Z,7.68
2018-05-26T09:46:03.677Z,7.60
2018-05-26T09:47:08.052Z,7.32
2018-05-26T09:48:12.413Z,7.60
2018-05-26T09:49:17.807Z,7.72
2018-05-26T09:50:22.260Z,7.85
2018-05-26T09:51:27.520Z,6.70
2018-05-26T09:52:32.354Z,6.68
2018-05-26T09:53:36.711Z,7.47
2018-05-26T09:54:42.290Z,6.87
2018-05-26T09:55:46.659Z,8.18
2018-05-26T09:56:50.999Z,7.57
2018-05-26T09:57:55.385Z,6.37
2018-05-26T09:59:00.651Z,6.05
2018-05-26T10:00:05.156Z,6.90
2018-05-26T10:01:09.580Z,7.72
2018-05-26T10:02:13.931Z,6.68
2018-05-26T10:03:18.301Z,6.62
2018-05-26T10:04:22.732Z,6.47
2018-05-26T10:05:27.383Z,7.70
2018-05-26T10:06:32.559Z,7.20
2018-05-26T10:07:36.901Z,6.78
2018-05-26T10:08:42.044Z,6.85
2018-05-26T10:09:47.161Z,7.40
2018-05-26T10:10:52.555Z,7.40
2018-05-26T10:11:56.968Z,7.87
2018-05-26T10:13:01.284Z,7.20
2018-05-26T10:14:05.687Z,6.80
2018-05-26T10:15:10.034Z,6.87
2018-05-26T10:16:15.454Z,7.47
2018-05-26T10:17:19.787Z,7.25
2018-05-26T10:18:24.137Z,7.12
2018-05-26T10:19:28.511Z,6.62
2018-05-26T10:20:32.869Z,7.10
2018-05-26T10:21:37.851Z,7.07
2018-05-26T10:22:42.236Z,6.87
2018-05-26T10:23:47.340Z,7.37
2018-05-26T10:24:51.743Z,6.70
2018-05-26T10:25:56.065Z,7.15
2018-05-26T10:27:00.812Z,7.05
2018-05-26T10:28:05.180Z,7.07
2018-05-26T10:29:09.566Z,7.32
2018-05-26T10:30:14.449Z,6.60
2018-05-26T10:31:18.780Z,7.30
2018-05-26T10:32:23.137Z,8.10
2018-05-26T10:33:28.265Z,6.47
2018-05-26T10:34:33.382Z,6.53
2018-05-26T10:35:37.837Z,7.03
2018-05-26T10:36:42.938Z,6.87
2018-05-26T10:37:48.208Z,7.00
2018-05-26T10:38:52.853Z,7.72
2018-05-26T10:39:57.251Z,6.85
2018-05-26T10:41:01.805Z,6.75
2018-05-26T10:42:06.897Z,6.60
2018-05-26T10:43:11.285Z,7.37
2018-05-26T10:44:15.692Z,6.72
2018-05-26T10:45:28.837Z,6.97
2018-05-26T10:46:33.182Z,7.10
2018-05-26T10:47:38.287Z,7.90
2018-05-26T10:48:42.671Z,7.03
2018-05-26T10:49:47.690Z,6.90
2018-05-26T10:50:52.841Z,7.28
2018-05-26T10:51:57.881Z,6.82
2018-05-26T10:53:03.060Z,7.10
2018-05-26T10:54:07.458Z,7.15
2018-05-26T10:55:12.103Z,6.78
2018-05-26T10:56:16.518Z,6.85
2018-05-26T10:57:20.900Z,6.87
2018-05-26T10:58:25.610Z,7.40
2018-05-26T10:59:29.962Z,7.18
2018-05-26T11:00:34.328Z,6.60
2018-05-26T11:01:38.682Z,7.35
2018-05-26T11:02:43.036Z,6.65
2018-05-26T11:03:47.395Z,7.07
2018-05-26T11:04:51.755Z,6.65
2018-05-26T11:05:56.390Z,6.85
2018-05-26T11:07:01.611Z,7.53
2018-05-26T11:08:05.953Z,6.87
2018-05-26T11:09:10.238Z,7.28
2018-05-26T11:10:14.613Z,6.60
2018-05-26T11:11:19.668Z,6.97
2018-05-26T11:12:38.729Z,6.35
2018-05-26T11:13:43.062Z,7.30
2018-05-26T11:14:48.150Z,6.05
2018-05-26T11:15:52.500Z,7.00
2018-05-26T11:16:57.701Z,6.57
2018-05-26T11:18:02.428Z,6.53
2018-05-26T11:19:07.428Z,6.95
2018-05-26T11:20:12.292Z,6.95
2018-05-26T11:21:17.382Z,7.85
2018-05-26T11:22:22.157Z,6.80
2018-05-26T11:23:26.494Z,6.60
2018-05-26T11:24:30.976Z,7.15
2018-05-26T11:25:36.161Z,6.95
2018-05-26T11:26:41.344Z,6.43
2018-05-26T11:27:45.675Z,7.65
2018-05-26T11:28:49.999Z,5.97
2018-05-26T11:29:54.402Z,6.47
2018-05-26T11:30:59.025Z,6.40
2018-05-26T11:32:03.859Z,7.03
2018-05-26T11:33:08.495Z,6.65
2018-05-26T11:34:12.848Z,7.00
2018-05-26T11:35:17.226Z,6.72
2018-05-26T11:36:21.589Z,7.30
2018-05-26T11:37:27.889Z,7.50
2018-05-26T11:38:32.317Z,6.30
2018-05-26T11:39:37.035Z,7.07
2018-05-26T11:40:41.504Z,6.68
2018-05-26T11:41:46.725Z,6.35
2018-05-26T11:42:52.179Z,6.68
2018-05-26T11:43:57.156Z,6.30
2018-05-26T11:45:01.862Z,6.70
2018-05-26T11:46:06.267Z,7.65
2018-05-26T11:47:10.693Z,6.70
2018-05-26T11:48:15.102Z,6.93
2018-05-26T11:49:19.529Z,6.55
2018-05-26T11:50:24.131Z,6.35
2018-05-26T11:51:28.525Z,7.35
2018-05-26T11:52:33.379Z,6.70
2018-05-26T11:53:37.733Z,6.72
2018-05-26T11:54:42.114Z,6.15
2018-05-26T11:55:47.529Z,6.72
2018-05-26T11:56:52.107Z,7.12
2018-05-26T11:57:56.605Z,6.95
2018-05-26T11:59:00.991Z,6.80
2018-05-26T12:00:05.365Z,6.20
2018-05-26T12:01:09.673Z,6.20
2018-05-26T12:02:14.010Z,6.12
2018-05-26T12:03:19.240Z,5.45
2018-05-26T12:04:24.117Z,6.12
2018-05-26T12:05:28.779Z,7.28
2018-05-26T12:06:33.209Z,6.40
2018-05-26T12:07:37.554Z,6.22
2018-05-26T12:08:41.998Z,7.18
2018-05-26T12:09:47.224Z,6.10
2018-05-26T12:10:52.464Z,6.10
2018-05-26T12:11:56.824Z,6.90
2018-05-26T12:13:01.955Z,5.82
2018-05-26T12:14:07.137Z,6.65
2018-05-26T12:15:11.529Z,5.97
2018-05-26T12:16:16.632Z,7.25
2018-05-26T12:17:21.005Z,6.53
2018-05-26T12:18:26.071Z,6.55
2018-05-26T12:19:31.205Z,7.00
2018-05-26T12:20:36.454Z,6.22
2018-05-26T12:21:40.850Z,6.80
2018-05-26T12:22:45.257Z,6.47
2018-05-26T12:23:49.648Z,6.80
2018-05-26T12:24:54.430Z,6.62
2018-05-26T12:25:58.857Z,6.00
2018-05-26T12:27:03.222Z,7.00
2018-05-26T12:28:07.642Z,6.53
2018-05-26T12:29:12.141Z,6.47
2018-05-26T12:30:16.769Z,6.05
2018-05-26T12:31:21.083Z,6.57
2018-05-26T12:32:25.409Z,6.18
2018-05-26T12:33:29.889Z,6.70
2018-05-26T12:34:34.220Z,6.07
2018-05-26T12:35:38.566Z,6.10
2018-05-26T12:36:43.036Z,6.07
2018-05-26T12:37:47.342Z,6.18
2018-05-26T12:38:51.917Z,6.93
2018-05-26T12:39:57.171Z,6.97
2018-05-26T12:41:01.730Z,6.60
2018-05-26T12:42:06.453Z,5.70
2018-05-26T12:43:10.903Z,7.05
2018-05-26T12:44:15.321Z,5.72
2018-05-26T12:45:19.975Z,6.25
2018-05-26T12:46:24.301Z,6.05
2018-05-26T12:47:29.128Z,6.78
2018-05-26T12:48:34.819Z,5.45
2018-05-26T12:49:39.499Z,5.70
2018-05-26T12:50:43.909Z,5.37
2018-05-26T12:51:48.370Z,6.70
2018-05-26T12:52:52.738Z,6.60
2018-05-26T12:53:57.235Z,6.32
2018-05-26T12:55:02.378Z,6.62
2018-05-26T12:56:06.948Z,6.25
2018-05-26T12:57:11.277Z,6.87
2018-05-26T12:58:16.527Z,6.18
2018-05-26T12:59:21.138Z,5.93
2018-05-26T13:00:25.521Z,5.70
2018-05-26T13:01:30.672Z,5.95
2018-05-26T13:02:35.290Z,6.12
2018-05-26T13:03:39.735Z,6.82
2018-05-26T13:04:44.176Z,6.62
2018-05-26T13:05:48.507Z,6.35
2018-05-26T13:06:53.556Z,6.37
2018-05-26T13:07:57.923Z,6.53
2018-05-26T13:09:02.408Z,5.85
2018-05-26T13:10:06.810Z,6.97
2018-05-26T13:11:11.169Z,6.00
2018-05-26T13:12:15.561Z,6.43
2018-05-26T13:13:20.267Z,6.00
2018-05-26T13:14:25.431Z,5.80
2018-05-26T13:15:29.970Z,5.95
2018-05-26T13:16:34.957Z,5.78
2018-05-26T13:17:39.568Z,6.30
2018-05-26T13:18:44.765Z,6.45
2018-05-26T13:19:49.141Z,6.18
2018-05-26T13:20:53.540Z,6.57
2018-05-26T13:21:57.914Z,6.20
2018-05-26T13:23:02.369Z,5.82
2018-05-26T13:24:06.704Z,5.68
2018-05-26T13:25:11.115Z,6.40
2018-05-26T13:26:15.448Z,6.40
2018-05-26T13:27:19.798Z,6.43
2018-05-26T13:28:24.447Z,6.12
2018-05-26T13:29:28.768Z,6.43
2018-05-26T13:30:33.112Z,6.00
2018-05-26T13:31:37.514Z,6.10
2018-05-26T13:32:42.694Z,5.40
2018-05-26T13:33:47.361Z,5.28
2018-05-26T13:34:52.464Z,5.78
2018-05-26T13:35:56.870Z,5.32
2018-05-26T13:37:01.253Z,5.40
2018-05-26T13:38:05.580Z,6.45
2018-05-26T13:39:09.927Z,5.57
2018-05-26T13:40:14.241Z,5.95
2018-05-26T13:41:18.701Z,5.80
2018-05-26T13:42:23.055Z,6.12
2018-05-26T13:43:27.419Z,5.57
2018-05-26T13:44:32.184Z,6.75
2018-05-26T13:46:06.995Z,5.80
2018-05-26T13:47:12.081Z,6.00
2018-05-26T13:48:16.410Z,6.10
2018-05-26T13:49:21.587Z,5.15
2018-05-26T13:50:26.784Z,6.55
2018-05-26T13:51:31.158Z,5.60
2018-05-26T13:52:35.691Z,5.87
2018-05-26T13:53:40.912Z,5.65
2018-05-26T13:54:45.213Z,5.70
2018-05-26T13:55:50.170Z,5.20
2018-05-26T13:56:54.600Z,5.72
2018-05-26T13:57:59.072Z,6.57
2018-05-26T13:59:04.512Z,6.07
2018-05-26T14:00:09.651Z,6.03
2018-05-26T14:01:14.825Z,5.62
2018-05-26T14:02:19.150Z,5.53
2018-05-26T14:03:23.614Z,5.85
2018-05-26T14:04:27.925Z,5.45
2018-05-26T14:05:32.376Z,5.30
2018-05-26T14:06:37.172Z,5.40
2018-05-26T14:07:41.556Z,5.93
2018-05-26T14:08:45.870Z,5.90
2018-05-26T14:09:50.194Z,5.87
2018-05-26T14:10:54.607Z,6.15
2018-05-26T14:11:59.297Z,5.95
2018-05-26T14:13:03.660Z,5.35
2018-05-26T14:14:07.977Z,5.62
2018-05-26T14:15:13.334Z,6.00
2018-05-26T14:16:17.757Z,5.40
2018-05-26T14:17:22.091Z,5.45
2018-05-26T14:18:26.440Z,5.75
2018-05-26T14:19:31.560Z,6.78
2018-05-26T14:20:36.914Z,6.03
2018-05-26T14:21:41.305Z,6.43
2018-05-26T14:22:46.504Z,4.87
2018-05-26T14:23:50.917Z,5.43
2018-05-26T14:24:55.321Z,5.35
2018-05-26T14:26:00.776Z,5.50
2018-05-26T14:27:05.268Z,5.60
2018-05-26T14:28:09.615Z,5.72
2018-05-26T14:29:14.254Z,5.12